sensor_id;sensor_type;location;lat;lon;timestamp;temperature;humidity
18337;DHT22;9294;51.106;7.028;2023-08-31T00:01:06;22.40;99.90
18337;DHT22;9294;51.106;7.028;2023-08-31T00:03:34;22.40;99.90
18337;DHT22;9294;51.106;7.028;2023-08-31T00:06:02;22.40;99.90
18337;DHT22;9294;51.106;7.028;2023-08-31T00:08:29;22.70;99.90
18337;DHT22;9294;51.106;7.028;2023-08-31T00:10:56;22.40;99.90
18337;DHT22;9294;51.106;7.028;2023-08-31T00:13:23;22.40;99.90
18337;DHT22;9294;51.106;7.028;2023-08-31T00:15:54;22.40;99.90
18337;DHT22;9294;51.106;7.028;2023-08-31T00:18:21;22.40;99.90
18337;DHT22;9294;51.106;7.028;2023-08-31T00:20:47;22.40;99.90
18337;DHT22;9294;51.106;7.028;2023-08-31T00:23:14;22.40;99.90
18337;DHT22;9294;51.106;7.028;2023-08-31T00:25:41;22.40;99.90
18337;DHT22;9294;51.106;7.028;2023-08-31T00:28:08;22.40;99.90
18337;DHT22;9294;51.106;7.028;2023-08-31T00:30:35;22.50;99.90
18337;DHT22;9294;51.106;7.028;2023-08-31T00:33:04;22.40;99.90
18337;DHT22;9294;51.106;7.028;2023-08-31T00:35:30;22.40;99.90
18337;DHT22;9294;51.106;7.028;2023-08-31T00:37:59;22.40;99.90
18337;DHT22;9294;51.106;7.028;2023-08-31T00:40:27;22.40;99.90
18337;DHT22;9294;51.106;7.028;2023-08-31T00:42:58;22.40;99.90
18337;DHT22;9294;51.106;7.028;2023-08-31T00:45:24;22.40;99.90
18337;DHT22;9294;51.106;7.028;2023-08-31T00:47:51;22.40;99.90
18337;DHT22;9294;51.106;7.028;2023-08-31T00:50:19;22.40;99.90
18337;DHT22;9294;51.106;7.028;2023-08-31T00:52:46;22.40;99.90
18337;DHT22;9294;51.106;7.028;2023-08-31T00:55:13;22.40;99.90
18337;DHT22;9294;51.106;7.028;2023-08-31T00:57:43;22.30;99.90
18337;DHT22;9294;51.106;7.028;2023-08-31T01:00:11;22.30;99.90
18337;DHT22;9294;51.106;7.028;2023-08-31T01:02:45;22.40;99.90
18337;DHT22;9294;51.106;7.028;2023-08-31T01:05:28;22.30;99.90
18337;DHT22;9294;51.106;7.028;2023-08-31T01:08:01;22.30;99.90
18337;DHT22;9294;51.106;7.028;2023-08-31T01:10:34;22.30;99.90
18337;DHT22;9294;51.106;7.028;2023-08-31T01:13:07;22.30;99.90
18337;DHT22;9294;51.106;7.028;2023-08-31T01:15:41;22.30;99.90
18337;DHT22;9294;51.106;7.028;2023-08-31T01:18:10;22.30;99.90
18337;DHT22;9294;51.106;7.028;2023-08-31T01:20:44;22.30;99.90
18337;DHT22;9294;51.106;7.028;2023-08-31T01:23:16;22.30;99.90
18337;DHT22;9294;51.106;7.028;2023-08-31T01:25:47;22.30;99.90
18337;DHT22;9294;51.106;7.028;2023-08-31T01:28:14;22.30;99.90
18337;DHT22;9294;51.106;7.028;2023-08-31T01:30:41;22.30;99.90
18337;DHT22;9294;51.106;7.028;2023-08-31T01:33:08;22.30;99.90
18337;DHT22;9294;51.106;7.028;2023-08-31T01:35:39;22.30;99.90
18337;DHT22;9294;51.106;7.028;2023-08-31T01:38:07;22.30;99.90
18337;DHT22;9294;51.106;7.028;2023-08-31T01:40:40;22.30;99.90
18337;DHT22;9294;51.106;7.028;2023-08-31T01:43:12;22.30;99.90
18337;DHT22;9294;51.106;7.028;2023-08-31T01:45:40;22.30;99.90
18337;DHT22;9294;51.106;7.028;2023-08-31T01:48:07;22.30;99.90
18337;DHT22;9294;51.106;7.028;2023-08-31T01:50:34;22.30;99.90
18337;DHT22;9294;51.106;7.028;2023-08-31T01:53:00;22.30;99.90
18337;DHT22;9294;51.106;7.028;2023-08-31T01:55:27;22.30;99.90
18337;DHT22;9294;51.106;7.028;2023-08-31T01:57:54;22.30;99.90
18337;DHT22;9294;51.106;7.028;2023-08-31T02:00:24;22.30;99.90
18337;DHT22;9294;51.106;7.028;2023-08-31T02:02:51;22.30;99.90
18337;DHT22;9294;51.106;7.028;2023-08-31T02:05:18;22.30;99.90
18337;DHT22;9294;51.106;7.028;2023-08-31T02:07:45;22.30;99.90
18337;DHT22;9294;51.106;7.028;2023-08-31T02:10:11;22.30;99.90
18337;DHT22;9294;51.106;7.028;2023-08-31T02:12:38;22.30;99.90
18337;DHT22;9294;51.106;7.028;2023-08-31T02:15:05;22.30;99.90
18337;DHT22;9294;51.106;7.028;2023-08-31T02:17:33;22.30;99.90
18337;DHT22;9294;51.106;7.028;2023-08-31T02:20:00;22.30;99.90
18337;DHT22;9294;51.106;7.028;2023-08-31T02:22:30;22.30;99.90
18337;DHT22;9294;51.106;7.028;2023-08-31T02:24:56;22.20;99.90
18337;DHT22;9294;51.106;7.028;2023-08-31T02:27:23;22.30;99.90
18337;DHT22;9294;51.106;7.028;2023-08-31T02:29:50;22.20;99.90
18337;DHT22;9294;51.106;7.028;2023-08-31T02:32:16;22.20;99.90
18337;DHT22;9294;51.106;7.028;2023-08-31T02:34:45;22.20;99.90
18337;DHT22;9294;51.106;7.028;2023-08-31T02:37:11;22.20;99.90
18337;DHT22;9294;51.106;7.028;2023-08-31T02:39:38;22.20;99.90
18337;DHT22;9294;51.106;7.028;2023-08-31T02:42:05;22.20;99.90
18337;DHT22;9294;51.106;7.028;2023-08-31T02:44:33;22.20;99.90
18337;DHT22;9294;51.106;7.028;2023-08-31T02:47:00;22.20;99.90
18337;DHT22;9294;51.106;7.028;2023-08-31T02:49:26;22.20;99.90
18337;DHT22;9294;51.106;7.028;2023-08-31T02:51:55;22.20;99.90
18337;DHT22;9294;51.106;7.028;2023-08-31T02:54:21;22.30;99.90
18337;DHT22;9294;51.106;7.028;2023-08-31T02:56:48;22.20;99.90
18337;DHT22;9294;51.106;7.028;2023-08-31T02:59:15;22.20;99.90
18337;DHT22;9294;51.106;7.028;2023-08-31T03:01:42;22.20;99.90
18337;DHT22;9294;51.106;7.028;2023-08-31T03:04:11;22.20;99.90
18337;DHT22;9294;51.106;7.028;2023-08-31T03:06:38;22.20;99.90
18337;DHT22;9294;51.106;7.028;2023-08-31T03:09:06;22.20;99.90
18337;DHT22;9294;51.106;7.028;2023-08-31T03:11:33;22.20;99.90
18337;DHT22;9294;51.106;7.028;2023-08-31T03:14:00;22.20;99.90
18337;DHT22;9294;51.106;7.028;2023-08-31T03:16:26;22.20;99.90
18337;DHT22;9294;51.106;7.028;2023-08-31T03:18:53;22.20;99.90
18337;DHT22;9294;51.106;7.028;2023-08-31T03:21:20;22.20;99.90
18337;DHT22;9294;51.106;7.028;2023-08-31T03:23:46;22.20;99.90
18337;DHT22;9294;51.106;7.028;2023-08-31T03:26:14;22.20;99.90
18337;DHT22;9294;51.106;7.028;2023-08-31T03:28:41;22.20;99.90
18337;DHT22;9294;51.106;7.028;2023-08-31T03:31:08;22.20;99.90
18337;DHT22;9294;51.106;7.028;2023-08-31T03:33:35;22.20;99.90
18337;DHT22;9294;51.106;7.028;2023-08-31T03:36:02;22.20;99.90
18337;DHT22;9294;51.106;7.028;2023-08-31T03:38:30;22.20;99.90
18337;DHT22;9294;51.106;7.028;2023-08-31T03:40:57;22.10;99.90
18337;DHT22;9294;51.106;7.028;2023-08-31T03:43:25;22.10;99.90
18337;DHT22;9294;51.106;7.028;2023-08-31T03:45:54;22.10;99.90
18337;DHT22;9294;51.106;7.028;2023-08-31T03:48:22;22.20;99.90
18337;DHT22;9294;51.106;7.028;2023-08-31T03:50:49;22.10;99.90
18337;DHT22;9294;51.106;7.028;2023-08-31T03:53:16;22.10;99.90
18337;DHT22;9294;51.106;7.028;2023-08-31T03:55:43;22.10;99.90
18337;DHT22;9294;51.106;7.028;2023-08-31T03:58:10;22.20;99.90
18337;DHT22;9294;51.106;7.028;2023-08-31T04:00:38;22.10;99.90
18337;DHT22;9294;51.106;7.028;2023-08-31T04:03:05;22.10;99.90
18337;DHT22;9294;51.106;7.028;2023-08-31T04:05:32;22.10;99.90
18337;DHT22;9294;51.106;7.028;2023-08-31T04:07:59;22.10;99.90
18337;DHT22;9294;51.106;7.028;2023-08-31T04:10:26;22.10;99.90
18337;DHT22;9294;51.106;7.028;2023-08-31T04:12:54;22.10;99.90
18337;DHT22;9294;51.106;7.028;2023-08-31T04:15:21;22.10;99.90
18337;DHT22;9294;51.106;7.028;2023-08-31T04:17:49;22.10;99.90
18337;DHT22;9294;51.106;7.028;2023-08-31T04:20:16;22.10;99.90
18337;DHT22;9294;51.106;7.028;2023-08-31T04:22:43;22.10;99.90
18337;DHT22;9294;51.106;7.028;2023-08-31T04:25:09;22.10;99.90
18337;DHT22;9294;51.106;7.028;2023-08-31T04:27:36;22.10;99.90
18337;DHT22;9294;51.106;7.028;2023-08-31T04:30:05;22.10;99.90
18337;DHT22;9294;51.106;7.028;2023-08-31T04:32:33;22.10;99.90
18337;DHT22;9294;51.106;7.028;2023-08-31T04:35:02;22.10;99.90
18337;DHT22;9294;51.106;7.028;2023-08-31T04:37:30;22.10;99.90
18337;DHT22;9294;51.106;7.028;2023-08-31T04:39:57;22.10;99.90
18337;DHT22;9294;51.106;7.028;2023-08-31T04:42:24;22.10;99.90
18337;DHT22;9294;51.106;7.028;2023-08-31T04:44:51;22.10;99.90
18337;DHT22;9294;51.106;7.028;2023-08-31T04:47:18;22.10;99.90
18337;DHT22;9294;51.106;7.028;2023-08-31T04:49:44;22.10;99.90
18337;DHT22;9294;51.106;7.028;2023-08-31T04:52:13;22.10;99.90
18337;DHT22;9294;51.106;7.028;2023-08-31T04:54:39;22.10;99.90
18337;DHT22;9294;51.106;7.028;2023-08-31T04:57:06;22.10;99.90
18337;DHT22;9294;51.106;7.028;2023-08-31T04:59:33;22.00;99.90
18337;DHT22;9294;51.106;7.028;2023-08-31T05:02:00;22.00;99.90
18337;DHT22;9294;51.106;7.028;2023-08-31T05:04:27;22.00;99.90
18337;DHT22;9294;51.106;7.028;2023-08-31T05:06:54;22.10;99.90
18337;DHT22;9294;51.106;7.028;2023-08-31T05:11:49;22.10;99.90
18337;DHT22;9294;51.106;7.028;2023-08-31T05:14:16;22.10;99.90
18337;DHT22;9294;51.106;7.028;2023-08-31T05:16:43;22.10;99.90
18337;DHT22;9294;51.106;7.028;2023-08-31T05:19:09;22.10;99.90
18337;DHT22;9294;51.106;7.028;2023-08-31T05:21:36;22.10;99.90
18337;DHT22;9294;51.106;7.028;2023-08-31T05:24:03;22.10;99.90
18337;DHT22;9294;51.106;7.028;2023-08-31T05:26:31;22.10;99.90
18337;DHT22;9294;51.106;7.028;2023-08-31T05:28:58;21.90;99.90
18337;DHT22;9294;51.106;7.028;2023-08-31T05:31:25;22.00;99.90
18337;DHT22;9294;51.106;7.028;2023-08-31T05:33:51;22.00;99.90
18337;DHT22;9294;51.106;7.028;2023-08-31T05:36:18;22.00;99.90
18337;DHT22;9294;51.106;7.028;2023-08-31T05:38:45;22.00;99.90
18337;DHT22;9294;51.106;7.028;2023-08-31T05:41:11;22.10;99.90
18337;DHT22;9294;51.106;7.028;2023-08-31T05:43:39;22.00;99.90
18337;DHT22;9294;51.106;7.028;2023-08-31T05:46:06;22.10;99.90
18337;DHT22;9294;51.106;7.028;2023-08-31T05:48:33;22.00;99.90
18337;DHT22;9294;51.106;7.028;2023-08-31T05:51:00;22.00;99.90
18337;DHT22;9294;51.106;7.028;2023-08-31T05:53:27;22.10;99.90
18337;DHT22;9294;51.106;7.028;2023-08-31T05:55:55;22.00;99.90
18337;DHT22;9294;51.106;7.028;2023-08-31T05:58:28;22.00;99.90
18337;DHT22;9294;51.106;7.028;2023-08-31T06:00:56;22.00;99.90
18337;DHT22;9294;51.106;7.028;2023-08-31T06:03:23;22.00;99.90
18337;DHT22;9294;51.106;7.028;2023-08-31T06:05:50;22.00;99.90
18337;DHT22;9294;51.106;7.028;2023-08-31T06:08:17;22.00;99.90
18337;DHT22;9294;51.106;7.028;2023-08-31T06:10:44;21.80;99.90
18337;DHT22;9294;51.106;7.028;2023-08-31T06:13:10;22.00;99.90
18337;DHT22;9294;51.106;7.028;2023-08-31T06:15:37;22.00;99.90
18337;DHT22;9294;51.106;7.028;2023-08-31T06:18:06;22.00;99.90
18337;DHT22;9294;51.106;7.028;2023-08-31T06:20:32;22.00;99.90
18337;DHT22;9294;51.106;7.028;2023-08-31T06:22:59;22.00;99.90
18337;DHT22;9294;51.106;7.028;2023-08-31T06:25:26;22.00;99.90
18337;DHT22;9294;51.106;7.028;2023-08-31T06:27:53;22.00;99.90
18337;DHT22;9294;51.106;7.028;2023-08-31T06:30:20;22.10;99.90
18337;DHT22;9294;51.106;7.028;2023-08-31T06:32:47;22.00;99.90
18337;DHT22;9294;51.106;7.028;2023-08-31T06:35:17;22.00;99.90
18337;DHT22;9294;51.106;7.028;2023-08-31T06:37:45;22.00;99.90
18337;DHT22;9294;51.106;7.028;2023-08-31T06:40:12;22.00;99.90
18337;DHT22;9294;51.106;7.028;2023-08-31T06:42:39;22.00;99.90
18337;DHT22;9294;51.106;7.028;2023-08-31T06:45:07;22.00;99.90
18337;DHT22;9294;51.106;7.028;2023-08-31T06:47:34;22.00;99.90
18337;DHT22;9294;51.106;7.028;2023-08-31T06:50:01;22.00;99.90
18337;DHT22;9294;51.106;7.028;2023-08-31T06:52:29;22.00;99.90
18337;DHT22;9294;51.106;7.028;2023-08-31T06:54:56;22.00;99.90
18337;DHT22;9294;51.106;7.028;2023-08-31T06:57:23;22.00;99.90
18337;DHT22;9294;51.106;7.028;2023-08-31T06:59:50;22.00;99.90
18337;DHT22;9294;51.106;7.028;2023-08-31T07:02:17;22.00;99.90
18337;DHT22;9294;51.106;7.028;2023-08-31T07:04:44;22.10;99.90
18337;DHT22;9294;51.106;7.028;2023-08-31T07:07:11;22.10;99.90
18337;DHT22;9294;51.106;7.028;2023-08-31T07:09:41;22.10;99.90
18337;DHT22;9294;51.106;7.028;2023-08-31T07:12:08;22.00;99.90
18337;DHT22;9294;51.106;7.028;2023-08-31T07:14:35;22.10;99.90
18337;DHT22;9294;51.106;7.028;2023-08-31T07:17:02;22.10;99.90
18337;DHT22;9294;51.106;7.028;2023-08-31T07:19:28;22.10;99.90
18337;DHT22;9294;51.106;7.028;2023-08-31T07:21:55;22.10;99.90
18337;DHT22;9294;51.106;7.028;2023-08-31T07:24:22;22.10;99.90
18337;DHT22;9294;51.106;7.028;2023-08-31T07:26:51;22.10;99.90
18337;DHT22;9294;51.106;7.028;2023-08-31T07:29:17;22.10;99.90
18337;DHT22;9294;51.106;7.028;2023-08-31T07:31:44;22.10;99.90
18337;DHT22;9294;51.106;7.028;2023-08-31T07:34:11;22.10;99.90
18337;DHT22;9294;51.106;7.028;2023-08-31T07:36:37;22.00;99.90
18337;DHT22;9294;51.106;7.028;2023-08-31T07:39:05;22.10;99.90
18337;DHT22;9294;51.106;7.028;2023-08-31T07:41:32;22.10;99.90
18337;DHT22;9294;51.106;7.028;2023-08-31T07:44:00;22.10;99.90
18337;DHT22;9294;51.106;7.028;2023-08-31T07:46:28;22.10;99.90
18337;DHT22;9294;51.106;7.028;2023-08-31T07:48:54;22.10;99.90
18337;DHT22;9294;51.106;7.028;2023-08-31T07:51:21;22.10;99.90
18337;DHT22;9294;51.106;7.028;2023-08-31T07:53:50;22.10;99.90
18337;DHT22;9294;51.106;7.028;2023-08-31T07:56:16;22.10;99.90
18337;DHT22;9294;51.106;7.028;2023-08-31T07:58:44;22.10;99.90
18337;DHT22;9294;51.106;7.028;2023-08-31T08:01:12;22.10;99.90
18337;DHT22;9294;51.106;7.028;2023-08-31T08:03:39;22.10;99.90
18337;DHT22;9294;51.106;7.028;2023-08-31T08:06:05;22.10;99.90
18337;DHT22;9294;51.106;7.028;2023-08-31T08:08:32;22.10;99.90
18337;DHT22;9294;51.106;7.028;2023-08-31T08:10:59;22.00;99.90
18337;DHT22;9294;51.106;7.028;2023-08-31T08:13:26;22.10;99.90
18337;DHT22;9294;51.106;7.028;2023-08-31T08:15:52;22.10;99.90
18337;DHT22;9294;51.106;7.028;2023-08-31T08:18:20;22.10;99.90
18337;DHT22;9294;51.106;7.028;2023-08-31T08:20:47;22.10;99.90
18337;DHT22;9294;51.106;7.028;2023-08-31T08:23:14;22.10;99.90
18337;DHT22;9294;51.106;7.028;2023-08-31T08:27:25;22.10;99.90
18337;DHT22;9294;51.106;7.028;2023-08-31T08:29:52;22.00;99.90
18337;DHT22;9294;51.106;7.028;2023-08-31T08:32:18;22.00;99.90
18337;DHT22;9294;51.106;7.028;2023-08-31T08:34:45;22.00;99.90
18337;DHT22;9294;51.106;7.028;2023-08-31T08:37:12;22.00;99.90
18337;DHT22;9294;51.106;7.028;2023-08-31T08:39:38;22.00;99.90
18337;DHT22;9294;51.106;7.028;2023-08-31T08:42:07;22.00;99.90
18337;DHT22;9294;51.106;7.028;2023-08-31T08:44:36;22.00;99.90
18337;DHT22;9294;51.106;7.028;2023-08-31T08:47:04;22.00;99.90
18337;DHT22;9294;51.106;7.028;2023-08-31T08:49:31;22.00;99.90
18337;DHT22;9294;51.106;7.028;2023-08-31T08:51:58;22.00;99.90
18337;DHT22;9294;51.106;7.028;2023-08-31T08:54:27;22.00;99.90
18337;DHT22;9294;51.106;7.028;2023-08-31T08:56:54;22.00;99.90
18337;DHT22;9294;51.106;7.028;2023-08-31T08:59:21;22.00;99.90
18337;DHT22;9294;51.106;7.028;2023-08-31T09:01:49;22.00;99.90
18337;DHT22;9294;51.106;7.028;2023-08-31T09:04:16;22.00;99.90
18337;DHT22;9294;51.106;7.028;2023-08-31T09:06:43;22.00;99.90
18337;DHT22;9294;51.106;7.028;2023-08-31T09:09:10;22.00;99.90
18337;DHT22;9294;51.106;7.028;2023-08-31T09:11:37;21.90;99.90
18337;DHT22;9294;51.106;7.028;2023-08-31T09:14:14;21.90;99.90
18337;DHT22;9294;51.106;7.028;2023-08-31T09:16:46;21.90;99.90
18337;DHT22;9294;51.106;7.028;2023-08-31T09:19:21;21.90;99.90
18337;DHT22;9294;51.106;7.028;2023-08-31T09:21:49;21.90;99.90
18337;DHT22;9294;51.106;7.028;2023-08-31T09:24:16;21.90;99.90
18337;DHT22;9294;51.106;7.028;2023-08-31T09:26:47;21.90;99.90
18337;DHT22;9294;51.106;7.028;2023-08-31T09:29:14;21.90;99.90
18337;DHT22;9294;51.106;7.028;2023-08-31T09:31:44;21.90;99.90
18337;DHT22;9294;51.106;7.028;2023-08-31T09:34:12;21.90;99.90
18337;DHT22;9294;51.106;7.028;2023-08-31T09:36:40;21.90;99.90
18337;DHT22;9294;51.106;7.028;2023-08-31T09:39:08;21.90;99.90
18337;DHT22;9294;51.106;7.028;2023-08-31T09:41:35;21.90;99.90
18337;DHT22;9294;51.106;7.028;2023-08-31T09:44:14;21.90;99.90
18337;DHT22;9294;51.106;7.028;2023-08-31T09:46:42;21.90;99.90
18337;DHT22;9294;51.106;7.028;2023-08-31T09:49:09;22.00;99.90
18337;DHT22;9294;51.106;7.028;2023-08-31T09:51:41;21.90;99.90
18337;DHT22;9294;51.106;7.028;2023-08-31T09:54:11;21.90;99.90
18337;DHT22;9294;51.106;7.028;2023-08-31T09:56:41;21.90;99.90
18337;DHT22;9294;51.106;7.028;2023-08-31T09:59:08;21.90;99.90
18337;DHT22;9294;51.106;7.028;2023-08-31T10:01:36;21.90;99.90
18337;DHT22;9294;51.106;7.028;2023-08-31T10:04:03;21.90;99.90
18337;DHT22;9294;51.106;7.028;2023-08-31T10:06:31;21.90;99.90
18337;DHT22;9294;51.106;7.028;2023-08-31T10:09:00;21.90;99.90
18337;DHT22;9294;51.106;7.028;2023-08-31T10:11:28;22.00;99.90
18337;DHT22;9294;51.106;7.028;2023-08-31T10:13:56;22.00;99.90
18337;DHT22;9294;51.106;7.028;2023-08-31T10:16:25;22.00;99.90
18337;DHT22;9294;51.106;7.028;2023-08-31T10:18:52;22.00;99.90
18337;DHT22;9294;51.106;7.028;2023-08-31T10:21:19;22.00;99.90
18337;DHT22;9294;51.106;7.028;2023-08-31T10:23:46;22.00;99.90
18337;DHT22;9294;51.106;7.028;2023-08-31T10:26:23;22.00;99.90
18337;DHT22;9294;51.106;7.028;2023-08-31T10:28:50;22.00;99.90
18337;DHT22;9294;51.106;7.028;2023-08-31T10:31:18;22.00;99.90
18337;DHT22;9294;51.106;7.028;2023-08-31T10:33:46;22.00;99.90
18337;DHT22;9294;51.106;7.028;2023-08-31T10:36:15;21.90;99.90
18337;DHT22;9294;51.106;7.028;2023-08-31T10:38:42;22.00;99.90
18337;DHT22;9294;51.106;7.028;2023-08-31T10:41:22;22.00;99.90
18337;DHT22;9294;51.106;7.028;2023-08-31T10:43:52;22.00;99.90
18337;DHT22;9294;51.106;7.028;2023-08-31T10:46:25;21.90;99.90
18337;DHT22;9294;51.106;7.028;2023-08-31T10:48:54;22.00;99.90
18337;DHT22;9294;51.106;7.028;2023-08-31T10:51:25;22.00;99.90
18337;DHT22;9294;51.106;7.028;2023-08-31T10:53:52;22.00;99.90
18337;DHT22;9294;51.106;7.028;2023-08-31T10:56:29;22.00;99.90
18337;DHT22;9294;51.106;7.028;2023-08-31T10:58:58;22.00;99.90
18337;DHT22;9294;51.106;7.028;2023-08-31T11:01:56;22.00;99.90
18337;DHT22;9294;51.106;7.028;2023-08-31T11:04:24;22.00;99.90
18337;DHT22;9294;51.106;7.028;2023-08-31T11:07:16;22.00;99.90
18337;DHT22;9294;51.106;7.028;2023-08-31T11:09:44;22.00;99.90
18337;DHT22;9294;51.106;7.028;2023-08-31T11:12:12;22.00;99.90
18337;DHT22;9294;51.106;7.028;2023-08-31T11:14:39;22.00;99.90
18337;DHT22;9294;51.106;7.028;2023-08-31T11:17:06;22.00;99.90
18337;DHT22;9294;51.106;7.028;2023-08-31T11:19:34;22.00;99.90
18337;DHT22;9294;51.106;7.028;2023-08-31T11:22:02;22.00;99.90
18337;DHT22;9294;51.106;7.028;2023-08-31T11:24:30;22.00;99.90
18337;DHT22;9294;51.106;7.028;2023-08-31T11:26:56;22.00;99.90
18337;DHT22;9294;51.106;7.028;2023-08-31T11:29:25;22.00;99.90
18337;DHT22;9294;51.106;7.028;2023-08-31T11:31:56;22.00;99.90
18337;DHT22;9294;51.106;7.028;2023-08-31T11:34:22;22.00;99.90
18337;DHT22;9294;51.106;7.028;2023-08-31T11:36:49;22.00;99.90
18337;DHT22;9294;51.106;7.028;2023-08-31T11:39:17;22.00;99.90
18337;DHT22;9294;51.106;7.028;2023-08-31T11:41:45;22.00;99.90
18337;DHT22;9294;51.106;7.028;2023-08-31T11:44:14;22.00;99.90
18337;DHT22;9294;51.106;7.028;2023-08-31T11:46:45;22.00;99.90
18337;DHT22;9294;51.106;7.028;2023-08-31T11:49:14;22.00;99.90
18337;DHT22;9294;51.106;7.028;2023-08-31T11:51:41;22.00;99.90
18337;DHT22;9294;51.106;7.028;2023-08-31T11:54:10;22.00;99.90
18337;DHT22;9294;51.106;7.028;2023-08-31T12:01:38;22.00;99.90
18337;DHT22;9294;51.106;7.028;2023-08-31T12:04:11;22.00;99.90
18337;DHT22;9294;51.106;7.028;2023-08-31T12:09:06;22.00;99.90
18337;DHT22;9294;51.106;7.028;2023-08-31T12:11:32;22.00;99.90
18337;DHT22;9294;51.106;7.028;2023-08-31T12:14:00;22.00;99.90
18337;DHT22;9294;51.106;7.028;2023-08-31T12:16:32;22.00;99.90
18337;DHT22;9294;51.106;7.028;2023-08-31T12:18:59;22.00;99.90
18337;DHT22;9294;51.106;7.028;2023-08-31T12:21:28;22.00;99.90
18337;DHT22;9294;51.106;7.028;2023-08-31T12:23:54;22.00;99.90
18337;DHT22;9294;51.106;7.028;2023-08-31T12:26:23;22.00;99.90
18337;DHT22;9294;51.106;7.028;2023-08-31T12:28:49;22.00;99.90
18337;DHT22;9294;51.106;7.028;2023-08-31T12:31:16;22.00;99.90
18337;DHT22;9294;51.106;7.028;2023-08-31T12:33:43;22.00;99.90
18337;DHT22;9294;51.106;7.028;2023-08-31T12:36:10;22.00;99.90
18337;DHT22;9294;51.106;7.028;2023-08-31T12:38:38;22.00;99.90
18337;DHT22;9294;51.106;7.028;2023-08-31T12:41:04;22.00;99.90
18337;DHT22;9294;51.106;7.028;2023-08-31T12:43:31;22.00;99.90
18337;DHT22;9294;51.106;7.028;2023-08-31T12:45:58;22.00;99.90
18337;DHT22;9294;51.106;7.028;2023-08-31T12:48:25;22.00;99.90
18337;DHT22;9294;51.106;7.028;2023-08-31T12:50:52;22.00;99.90
18337;DHT22;9294;51.106;7.028;2023-08-31T12:53:21;22.00;99.90
18337;DHT22;9294;51.106;7.028;2023-08-31T12:55:49;22.00;99.90
18337;DHT22;9294;51.106;7.028;2023-08-31T12:58:16;22.00;99.90
18337;DHT22;9294;51.106;7.028;2023-08-31T13:00:43;22.00;99.90
18337;DHT22;9294;51.106;7.028;2023-08-31T13:03:11;22.10;99.90
18337;DHT22;9294;51.106;7.028;2023-08-31T13:05:39;22.00;99.90
18337;DHT22;9294;51.106;7.028;2023-08-31T13:08:06;22.00;99.90
18337;DHT22;9294;51.106;7.028;2023-08-31T13:10:33;22.10;99.90
18337;DHT22;9294;51.106;7.028;2023-08-31T13:13:01;22.00;99.90
18337;DHT22;9294;51.106;7.028;2023-08-31T13:15:28;22.00;99.90
18337;DHT22;9294;51.106;7.028;2023-08-31T13:17:55;22.00;99.90
18337;DHT22;9294;51.106;7.028;2023-08-31T13:20:21;22.00;99.90
18337;DHT22;9294;51.106;7.028;2023-08-31T13:22:48;22.00;99.90
18337;DHT22;9294;51.106;7.028;2023-08-31T13:25:15;22.10;99.90
18337;DHT22;9294;51.106;7.028;2023-08-31T13:27:42;22.10;99.90
18337;DHT22;9294;51.106;7.028;2023-08-31T13:30:11;22.10;99.90
18337;DHT22;9294;51.106;7.028;2023-08-31T13:32:38;22.10;99.90
18337;DHT22;9294;51.106;7.028;2023-08-31T13:35:06;22.10;99.90
18337;DHT22;9294;51.106;7.028;2023-08-31T13:37:33;22.10;99.90
18337;DHT22;9294;51.106;7.028;2023-08-31T13:40:00;22.10;99.90
18337;DHT22;9294;51.106;7.028;2023-08-31T13:42:34;22.10;99.90
18337;DHT22;9294;51.106;7.028;2023-08-31T13:45:01;22.00;99.90
18337;DHT22;9294;51.106;7.028;2023-08-31T13:47:30;22.00;99.90
18337;DHT22;9294;51.106;7.028;2023-08-31T13:49:57;22.10;99.90
18337;DHT22;9294;51.106;7.028;2023-08-31T13:52:23;22.10;99.90
18337;DHT22;9294;51.106;7.028;2023-08-31T13:54:50;22.10;99.90
18337;DHT22;9294;51.106;7.028;2023-08-31T13:57:17;22.10;99.90
18337;DHT22;9294;51.106;7.028;2023-08-31T13:59:44;22.10;99.90
18337;DHT22;9294;51.106;7.028;2023-08-31T14:02:10;22.10;99.90
18337;DHT22;9294;51.106;7.028;2023-08-31T14:04:38;22.10;99.90
18337;DHT22;9294;51.106;7.028;2023-08-31T14:07:05;22.10;99.90
18337;DHT22;9294;51.106;7.028;2023-08-31T14:09:33;22.10;99.90
18337;DHT22;9294;51.106;7.028;2023-08-31T14:12:00;22.10;99.90
18337;DHT22;9294;51.106;7.028;2023-08-31T14:14:27;22.10;99.90
18337;DHT22;9294;51.106;7.028;2023-08-31T14:16:54;22.10;99.90
18337;DHT22;9294;51.106;7.028;2023-08-31T14:19:21;22.10;99.90
18337;DHT22;9294;51.106;7.028;2023-08-31T14:21:49;22.10;99.90
18337;DHT22;9294;51.106;7.028;2023-08-31T14:24:18;22.10;99.90
18337;DHT22;9294;51.106;7.028;2023-08-31T14:26:44;22.10;99.90
18337;DHT22;9294;51.106;7.028;2023-08-31T14:29:11;22.10;99.90
18337;DHT22;9294;51.106;7.028;2023-08-31T14:31:38;22.10;99.90
18337;DHT22;9294;51.106;7.028;2023-08-31T14:34:05;22.10;99.90
18337;DHT22;9294;51.106;7.028;2023-08-31T14:36:31;22.10;99.90
18337;DHT22;9294;51.106;7.028;2023-08-31T14:38:59;22.10;99.90
18337;DHT22;9294;51.106;7.028;2023-08-31T14:41:27;22.10;99.90
18337;DHT22;9294;51.106;7.028;2023-08-31T14:43:54;22.10;99.90
18337;DHT22;9294;51.106;7.028;2023-08-31T14:46:20;22.10;99.90
18337;DHT22;9294;51.106;7.028;2023-08-31T14:48:47;22.10;99.90
18337;DHT22;9294;51.106;7.028;2023-08-31T14:51:15;22.10;99.90
18337;DHT22;9294;51.106;7.028;2023-08-31T14:53:42;22.10;99.90
18337;DHT22;9294;51.106;7.028;2023-08-31T14:56:10;22.10;99.90
18337;DHT22;9294;51.106;7.028;2023-08-31T14:58:37;22.10;99.90
18337;DHT22;9294;51.106;7.028;2023-08-31T15:01:03;22.10;99.90
18337;DHT22;9294;51.106;7.028;2023-08-31T15:03:30;22.10;99.90
18337;DHT22;9294;51.106;7.028;2023-08-31T15:05:57;22.10;99.90
18337;DHT22;9294;51.106;7.028;2023-08-31T15:08:35;22.10;99.90
18337;DHT22;9294;51.106;7.028;2023-08-31T15:11:02;22.10;99.90
18337;DHT22;9294;51.106;7.028;2023-08-31T15:13:30;22.10;99.90
18337;DHT22;9294;51.106;7.028;2023-08-31T15:15:57;22.10;99.90
18337;DHT22;9294;51.106;7.028;2023-08-31T15:18:25;22.10;99.90
18337;DHT22;9294;51.106;7.028;2023-08-31T15:20:52;22.10;99.90
18337;DHT22;9294;51.106;7.028;2023-08-31T15:23:19;22.10;99.90
18337;DHT22;9294;51.106;7.028;2023-08-31T15:25:46;22.10;99.90
18337;DHT22;9294;51.106;7.028;2023-08-31T15:28:13;22.10;99.90
18337;DHT22;9294;51.106;7.028;2023-08-31T15:30:41;22.10;99.90
18337;DHT22;9294;51.106;7.028;2023-08-31T15:33:07;22.10;99.90
18337;DHT22;9294;51.106;7.028;2023-08-31T15:35:34;22.10;99.90
18337;DHT22;9294;51.106;7.028;2023-08-31T15:38:01;22.10;99.90
18337;DHT22;9294;51.106;7.028;2023-08-31T15:40:29;22.10;99.90
18337;DHT22;9294;51.106;7.028;2023-08-31T15:42:55;22.10;99.90
18337;DHT22;9294;51.106;7.028;2023-08-31T15:45:22;22.10;99.90
18337;DHT22;9294;51.106;7.028;2023-08-31T15:47:50;22.10;99.90
18337;DHT22;9294;51.106;7.028;2023-08-31T15:50:17;22.00;99.90
18337;DHT22;9294;51.106;7.028;2023-08-31T15:52:44;22.10;99.90
18337;DHT22;9294;51.106;7.028;2023-08-31T15:55:10;22.10;99.90
18337;DHT22;9294;51.106;7.028;2023-08-31T15:57:37;22.10;99.90
18337;DHT22;9294;51.106;7.028;2023-08-31T16:00:05;22.10;99.90